createdAt,value
2018-06-08T00:01:40.948Z,19.00
2018-06-08T00:04:10.112Z,19.10
2018-06-08T00:06:39.233Z,19.10
2018-06-08T00:09:09.061Z,19.00
2018-06-08T00:11:38.227Z,18.90
2018-06-08T00:16:36.095Z,18.80
2018-06-08T00:19:05.245Z,18.90
2018-06-08T00:21:34.357Z,19.00
2018-06-08T00:24:03.533Z,19.00
2018-06-08T00:26:32.742Z,18.90
2018-06-08T00:29:01.924Z,18.80
2018-06-08T00:31:31.120Z,18.80
2018-06-08T00:34:00.258Z,18.70
2018-06-08T00:36:29.416Z,18.70
2018-06-08T00:38:58.545Z,18.60
2018-06-08T00:41:27.777Z,18.50
2018-06-08T00:43:56.913Z,18.40
2018-06-08T00:46:26.047Z,18.50
2018-06-08T00:48:55.206Z,18.60
2018-06-08T00:51:25.390Z,18.60
2018-06-08T00:53:54.517Z,18.40
2018-06-08T00:56:34.910Z,18.20
2018-06-08T00:59:04.075Z,18.40
2018-06-08T01:01:34.447Z,18.40
2018-06-08T01:04:04.615Z,18.60
2018-06-08T01:06:33.749Z,18.70
2018-06-08T01:09:03.120Z,18.70
2018-06-08T01:11:32.246Z,18.80
2018-06-08T01:14:01.388Z,18.60
2018-06-08T01:16:30.538Z,18.50
2018-06-08T01:19:02.837Z,18.30
2018-06-08T01:21:32.290Z,18.40
2018-06-08T01:24:01.419Z,18.50
2018-06-08T01:26:30.822Z,18.60
2018-06-08T01:29:00.030Z,18.80
2018-06-08T01:31:29.136Z,18.60
2018-06-08T01:33:58.233Z,18.60
2018-06-08T01:36:27.451Z,18.60
2018-06-08T01:38:56.599Z,18.60
2018-06-08T01:41:25.744Z,18.70
2018-06-08T01:43:54.922Z,18.70
2018-06-08T01:46:24.024Z,18.70
2018-06-08T01:48:53.159Z,18.70
2018-06-08T01:51:22.307Z,18.50
2018-06-08T01:53:51.427Z,18.60
2018-06-08T01:56:20.666Z,18.60
2018-06-08T01:58:49.923Z,18.70
2018-06-08T02:01:19.070Z,18.70
2018-06-08T02:03:48.216Z,18.60
2018-06-08T02:06:18.375Z,18.60
2018-06-08T02:08:47.775Z,18.50
2018-06-08T02:11:17.043Z,18.50
2018-06-08T02:13:46.134Z,18.50
2018-06-08T02:16:15.279Z,18.50
2018-06-08T02:18:44.629Z,18.50
2018-06-08T02:21:13.757Z,18.30
2018-06-08T02:23:42.924Z,18.40
2018-06-08T02:26:12.076Z,18.50
2018-06-08T02:28:41.262Z,18.50
2018-06-08T02:31:10.453Z,18.60
2018-06-08T02:33:39.577Z,18.50
2018-06-08T02:36:08.751Z,18.60
2018-06-08T02:38:37.914Z,18.50
2018-06-08T02:41:07.067Z,18.50
2018-06-08T02:43:36.255Z,18.40
2018-06-08T02:46:05.454Z,18.40
2018-06-08T02:48:34.632Z,18.40
2018-06-08T02:51:03.797Z,18.40
2018-06-08T02:53:32.993Z,18.40
2018-06-08T02:56:02.125Z,18.50
2018-06-08T02:58:31.300Z,18.50
2018-06-08T03:01:00.483Z,18.30
2018-06-08T03:03:29.630Z,18.30
2018-06-08T03:05:58.813Z,18.20
2018-06-08T03:08:28.006Z,18.40
2018-06-08T03:10:57.208Z,18.20
2018-06-08T03:13:26.368Z,18.10
2018-06-08T03:15:55.732Z,18.10
2018-06-08T03:18:24.916Z,18.20
2018-06-08T03:20:54.197Z,18.30
2018-06-08T03:23:23.734Z,18.30
2018-06-08T03:25:52.906Z,18.40
2018-06-08T03:28:22.064Z,18.30
2018-06-08T03:30:51.258Z,18.30
2018-06-08T03:33:20.449Z,18.30
2018-06-08T03:35:49.549Z,18.20
2018-06-08T03:38:18.747Z,18.10
2018-06-08T03:40:47.902Z,18.10
2018-06-08T03:43:17.056Z,18.20
2018-06-08T03:45:46.209Z,18.20
2018-06-08T03:48:15.366Z,18.20
2018-06-08T03:50:44.578Z,18.30
2018-06-08T03:53:13.712Z,18.30
2018-06-08T03:55:42.860Z,18.30
2018-06-08T04:00:47.386Z,18.20
2018-06-08T04:03:16.559Z,18.30
2018-06-08T04:05:46.105Z,18.20
2018-06-08T04:08:15.241Z,18.30
2018-06-08T04:10:44.395Z,18.30
2018-06-08T04:13:13.566Z,18.40
2018-06-08T04:18:11.458Z,18.50
2018-06-08T04:20:40.595Z,18.50
2018-06-08T04:23:09.740Z,18.50
2018-06-08T04:25:38.938Z,18.60
2018-06-08T04:28:08.091Z,18.60
2018-06-08T04:30:37.252Z,18.60
2018-06-08T04:33:06.512Z,18.60
2018-06-08T04:35:35.658Z,18.70
2018-06-08T04:38:04.820Z,18.60
2018-06-08T04:40:33.983Z,18.60
2018-06-08T04:43:03.110Z,18.40
2018-06-08T04:45:32.270Z,18.60
2018-06-08T04:48:01.852Z,18.50
2018-06-08T04:50:31.057Z,18.60
2018-06-08T04:53:00.270Z,18.70
2018-06-08T04:55:29.443Z,18.60
2018-06-08T04:57:58.608Z,18.80
2018-06-08T05:00:27.735Z,18.90
2018-06-08T05:02:56.906Z,19.00
2018-06-08T05:05:26.062Z,19.00
2018-06-08T05:07:55.239Z,18.90
2018-06-08T05:10:24.331Z,18.60
2018-06-08T05:12:53.484Z,18.60
2018-06-08T05:15:22.600Z,18.80
2018-06-08T05:17:51.754Z,18.80
2018-06-08T05:20:20.953Z,18.90
2018-06-08T05:22:50.097Z,19.00
2018-06-08T05:25:19.258Z,18.80
2018-06-08T05:27:48.415Z,19.00
2018-06-08T05:30:20.726Z,19.00
2018-06-08T05:32:49.833Z,19.20
2018-06-08T05:35:19.050Z,19.20
2018-06-08T05:37:48.183Z,19.30
2018-06-08T05:40:17.349Z,19.50
2018-06-08T05:42:46.810Z,19.70
2018-06-08T05:45:15.946Z,19.50
2018-06-08T05:47:45.310Z,19.70
2018-06-08T05:50:14.445Z,19.80
2018-06-08T05:52:43.626Z,19.90
2018-06-08T05:55:12.760Z,19.80
2018-06-08T05:57:42.016Z,19.90
2018-06-08T06:00:11.337Z,19.80
2018-06-08T06:02:40.497Z,19.90
2018-06-08T06:05:09.662Z,20.20
2018-06-08T06:07:38.863Z,20.30
2018-06-08T06:10:09.039Z,20.40
2018-06-08T06:12:38.230Z,20.40
2018-06-08T06:15:07.654Z,20.60
2018-06-08T06:20:07.960Z,20.90
2018-06-08T06:22:37.090Z,20.90
2018-06-08T06:25:06.270Z,21.10
2018-06-08T06:27:35.412Z,21.40
2018-06-08T06:30:05.365Z,21.40
2018-06-08T06:32:35.008Z,21.50
2018-06-08T06:35:04.266Z,21.60
2018-06-08T06:37:33.568Z,21.80
2018-06-08T06:40:02.816Z,22.40
2018-06-08T06:42:32.130Z,22.90
2018-06-08T06:45:01.335Z,24.10
2018-06-08T06:47:31.480Z,24.80
2018-06-08T06:50:00.682Z,25.10
2018-06-08T06:52:29.886Z,25.80
2018-06-08T06:54:59.023Z,27.70
2018-06-08T06:57:28.193Z,29.80
2018-06-08T06:59:57.343Z,30.70
2018-06-08T07:02:26.726Z,31.60
2018-06-08T07:04:55.963Z,32.30
2018-06-08T07:07:25.122Z,32.90
2018-06-08T07:09:54.271Z,32.60
2018-06-08T07:12:23.449Z,33.60
2018-06-08T07:14:52.587Z,33.50
2018-06-08T07:17:21.767Z,33.60
2018-06-08T07:19:51.004Z,34.40
2018-06-08T07:22:24.046Z,34.70
2018-06-08T07:24:53.239Z,36.00
2018-06-08T07:27:22.340Z,35.50
2018-06-08T07:29:51.527Z,35.90
2018-06-08T07:32:20.728Z,35.70
2018-06-08T07:34:50.021Z,36.00
2018-06-08T07:37:19.278Z,37.20
2018-06-08T07:39:48.475Z,37.40
2018-06-08T07:42:17.681Z,36.90
2018-06-08T07:44:46.920Z,37.00
2018-06-08T07:47:16.149Z,36.80
2018-06-08T07:52:14.369Z,37.50
2018-06-08T07:54:43.644Z,36.30
2018-06-08T07:57:12.853Z,36.00
2018-06-08T07:59:42.034Z,36.10
2018-06-08T08:02:11.235Z,36.60
2018-06-08T08:04:40.432Z,36.00
2018-06-08T08:07:09.689Z,36.30
2018-06-08T08:09:38.854Z,36.80
2018-06-08T08:12:08.058Z,36.40
2018-06-08T08:14:37.160Z,36.10
2018-06-08T08:17:06.399Z,35.90
2018-06-08T08:19:35.659Z,36.60
2018-06-08T08:22:04.825Z,36.20
2018-06-08T08:24:33.989Z,37.10
2018-06-08T08:27:03.239Z,38.10
2018-06-08T08:29:32.427Z,37.20
2018-06-08T08:32:01.642Z,37.60
2018-06-08T08:34:30.873Z,37.20
2018-06-08T08:37:00.106Z,36.80
2018-06-08T08:41:58.001Z,36.40
2018-06-08T08:44:27.105Z,35.40
2018-06-08T08:46:56.401Z,34.50
2018-06-08T08:49:25.563Z,32.90
2018-06-08T08:51:54.708Z,32.30
2018-06-08T08:56:52.982Z,31.70
2018-06-08T08:59:22.128Z,31.60
2018-06-08T09:01:52.511Z,31.10
2018-06-08T09:04:21.649Z,30.40
2018-06-08T09:06:53.022Z,29.30
2018-06-08T09:09:22.193Z,28.00
2018-06-08T09:11:51.386Z,26.90
2018-06-08T09:14:21.622Z,26.10
2018-06-08T09:16:50.976Z,26.10
2018-06-08T09:19:21.092Z,26.30
2018-06-08T09:21:50.277Z,26.60
2018-06-08T09:24:19.962Z,26.90
2018-06-08T09:26:49.098Z,27.60
2018-06-08T09:29:18.494Z,27.90
2018-06-08T09:31:47.589Z,27.70
2018-06-08T09:36:45.575Z,26.80
2018-06-08T09:39:14.772Z,26.50
2018-06-08T09:41:44.029Z,26.70
2018-06-08T09:44:13.160Z,26.50
2018-06-08T09:46:42.459Z,26.20
2018-06-08T09:49:12.590Z,25.70
2018-06-08T09:51:41.860Z,25.80
2018-06-08T09:54:11.040Z,26.00
2018-06-08T09:56:40.247Z,26.30
2018-06-08T09:59:09.491Z,26.50
2018-06-08T10:01:38.666Z,26.30
2018-06-08T10:04:07.890Z,26.30
2018-06-08T10:06:37.156Z,26.50
2018-06-08T10:09:08.249Z,26.70
2018-06-08T10:11:37.362Z,26.50
2018-06-08T10:14:06.561Z,26.20
2018-06-08T10:16:35.785Z,26.30
2018-06-08T10:19:04.898Z,26.50
2018-06-08T10:21:34.104Z,26.60
2018-06-08T10:24:03.258Z,26.70
2018-06-08T10:26:32.398Z,26.80
2018-06-08T10:29:01.567Z,26.90
2018-06-08T10:31:30.747Z,26.90
2018-06-08T10:33:59.927Z,26.90
2018-06-08T10:36:29.084Z,26.70
2018-06-08T10:38:58.277Z,26.80
2018-06-08T10:41:27.413Z,26.90
2018-06-08T10:43:56.644Z,27.10
2018-06-08T10:46:25.778Z,27.00
2018-06-08T10:48:55.106Z,26.80
2018-06-08T10:51:24.234Z,26.60
2018-06-08T10:53:53.369Z,26.60
2018-06-08T10:56:22.618Z,26.50
2018-06-08T10:58:51.797Z,26.40
2018-06-08T11:01:21.010Z,26.40
2018-06-08T11:03:50.204Z,26.50
2018-06-08T11:06:19.372Z,26.40
2018-06-08T11:08:48.508Z,26.50
2018-06-08T11:11:17.756Z,26.50
2018-06-08T11:13:46.884Z,26.60
2018-06-08T11:16:16.026Z,26.80
2018-06-08T11:18:45.177Z,26.90
2018-06-08T11:21:14.320Z,26.80
2018-06-08T11:23:43.601Z,26.50
2018-06-08T11:26:12.822Z,26.40
2018-06-08T11:28:41.927Z,26.30
2018-06-08T11:31:11.085Z,26.20
2018-06-08T11:33:40.255Z,26.30
2018-06-08T11:36:09.551Z,26.40
2018-06-08T11:38:38.794Z,26.40
2018-06-08T11:41:07.932Z,26.50
2018-06-08T11:43:37.249Z,26.50
2018-06-08T11:46:06.444Z,26.60
2018-06-08T11:48:35.610Z,26.40
2018-06-08T11:51:04.799Z,26.10
2018-06-08T11:53:33.943Z,26.20
2018-06-08T11:56:03.105Z,26.30
2018-06-08T11:58:32.270Z,26.30
2018-06-08T12:01:01.367Z,26.20
2018-06-08T12:03:30.507Z,26.20
2018-06-08T12:05:59.641Z,26.30
2018-06-08T12:08:28.848Z,26.40
2018-06-08T12:10:58.022Z,26.60
2018-06-08T12:13:27.260Z,26.70
2018-06-08T12:15:56.416Z,26.70
2018-06-08T12:18:25.664Z,26.60
2018-06-08T12:20:54.859Z,26.70
2018-06-08T12:23:24.083Z,26.80
2018-06-08T12:25:53.294Z,27.00
2018-06-08T12:28:22.522Z,27.10
2018-06-08T12:30:51.762Z,26.90
2018-06-08T12:33:20.955Z,27.10
2018-06-08T12:35:50.131Z,27.10
2018-06-08T12:38:19.454Z,27.20
2018-06-08T12:40:48.688Z,27.30
2018-06-08T12:43:17.933Z,27.30
2018-06-08T12:45:47.147Z,27.40
2018-06-08T12:48:16.345Z,27.50
2018-06-08T12:50:45.749Z,27.80
2018-06-08T12:53:15.169Z,27.70
2018-06-08T12:55:44.590Z,27.50
2018-06-08T12:58:13.788Z,27.50
2018-06-08T13:00:43.052Z,27.60
2018-06-08T13:03:12.346Z,27.80
2018-06-08T13:05:41.624Z,27.80
2018-06-08T13:08:10.891Z,27.90
2018-06-08T13:10:40.148Z,27.80
2018-06-08T13:13:09.685Z,27.70
2018-06-08T13:15:39.657Z,27.70
2018-06-08T13:18:08.936Z,27.70
2018-06-08T13:20:38.243Z,27.50
2018-06-08T13:25:36.334Z,27.60
2018-06-08T13:28:05.567Z,27.70
2018-06-08T13:30:34.772Z,27.60
2018-06-08T13:33:04.059Z,27.20
2018-06-08T13:35:33.538Z,27.10
2018-06-08T13:38:02.720Z,27.30
2018-06-08T13:40:32.055Z,27.50
2018-06-08T13:43:01.268Z,27.50
2018-06-08T13:45:31.337Z,27.90
2018-06-08T13:48:00.534Z,27.80
2018-06-08T13:50:29.874Z,27.60
2018-06-08T13:52:59.164Z,27.40
2018-06-08T13:55:28.439Z,27.10
2018-06-08T13:57:57.642Z,26.90
2018-06-08T14:00:26.930Z,26.90
2018-06-08T14:02:56.339Z,26.90
2018-06-08T14:05:25.622Z,27.00
2018-06-08T14:07:54.856Z,27.20
2018-06-08T14:10:24.180Z,27.40
2018-06-08T14:12:53.334Z,27.40
2018-06-08T14:15:22.774Z,27.50
2018-06-08T14:17:52.056Z,27.50
2018-06-08T14:20:21.328Z,27.40
2018-06-08T14:22:50.578Z,27.50
2018-06-08T14:25:19.810Z,27.50
2018-06-08T14:27:49.074Z,27.50
2018-06-08T14:30:18.278Z,27.50
2018-06-08T14:32:47.462Z,27.30
2018-06-08T14:35:16.706Z,27.20
2018-06-08T14:37:45.897Z,27.00
2018-06-08T14:40:15.142Z,26.90
2018-06-08T14:42:44.361Z,26.90
2018-06-08T14:45:13.535Z,26.90
2018-06-08T14:47:42.730Z,26.90
2018-06-08T14:50:11.985Z,27.10
2018-06-08T14:52:41.140Z,27.10
2018-06-08T14:55:10.330Z,27.20
2018-06-08T14:57:39.478Z,27.30
2018-06-08T15:00:08.737Z,27.50
2018-06-08T15:02:38.074Z,27.60
2018-06-08T15:05:07.539Z,27.60
2018-06-08T15:07:36.835Z,27.60
2018-06-08T15:10:06.259Z,27.70
2018-06-08T15:12:35.432Z,27.60
2018-06-08T15:15:04.950Z,27.50
2018-06-08T15:17:34.344Z,27.70
2018-06-08T15:20:03.697Z,27.70
2018-06-08T15:22:33.217Z,27.50
2018-06-08T15:25:02.587Z,27.60
2018-06-08T15:27:31.969Z,27.70
2018-06-08T15:30:01.305Z,27.80
2018-06-08T15:32:30.813Z,27.80
2018-06-08T15:35:00.222Z,27.70
2018-06-08T15:37:29.459Z,27.70
2018-06-08T15:39:58.722Z,27.70
2018-06-08T15:42:28.070Z,27.70
2018-06-08T15:44:57.336Z,27.70
2018-06-08T15:47:26.944Z,27.80
2018-06-08T15:49:56.119Z,27.80
2018-06-08T15:52:25.462Z,27.90
2018-06-08T15:54:54.707Z,27.90
2018-06-08T15:57:23.958Z,27.80
2018-06-08T15:59:53.139Z,27.80
2018-06-08T16:02:22.462Z,27.80
2018-06-08T16:04:51.746Z,27.80
2018-06-08T16:07:21.068Z,28.00
2018-06-08T16:09:50.253Z,28.10
2018-06-08T16:12:19.450Z,28.10
2018-06-08T16:14:48.713Z,28.10
2018-06-08T16:17:17.930Z,28.00
2018-06-08T16:19:47.055Z,28.00
2018-06-08T16:22:16.242Z,28.00
2018-06-08T16:24:45.429Z,27.80
2018-06-08T16:27:14.726Z,27.90
2018-06-08T16:29:44.144Z,27.80
2018-06-08T16:32:13.385Z,27.70
2018-06-08T16:34:42.620Z,27.50
2018-06-08T16:37:11.890Z,27.50
2018-06-08T16:39:41.080Z,27.50
2018-06-08T16:42:10.446Z,27.50
2018-06-08T16:44:39.640Z,27.40
2018-06-08T16:47:08.851Z,27.20
2018-06-08T16:49:38.099Z,27.10
2018-06-08T16:52:07.278Z,27.00
2018-06-08T16:54:36.481Z,27.00
2018-06-08T16:57:05.905Z,26.90
2018-06-08T16:59:35.050Z,26.90
2018-06-08T17:02:04.285Z,26.80
2018-06-08T17:04:33.478Z,26.70
2018-06-08T17:07:02.639Z,26.60
2018-06-08T17:09:31.804Z,26.50
2018-06-08T17:12:00.971Z,26.50
2018-06-08T17:14:30.106Z,26.30
2018-06-08T17:16:59.292Z,26.20
2018-06-08T17:19:28.509Z,26.10
2018-06-08T17:21:57.687Z,26.10
2018-06-08T17:24:26.847Z,26.00
2018-06-08T17:26:56.259Z,26.00
2018-06-08T17:29:25.414Z,26.10
2018-06-08T17:31:54.585Z,26.10
2018-06-08T17:34:23.756Z,26.00
2018-06-08T17:36:52.940Z,25.70
2018-06-08T17:39:22.126Z,25.50
2018-06-08T17:41:51.318Z,25.40
2018-06-08T17:44:20.500Z,25.20
2018-06-08T17:46:49.785Z,25.10
2018-06-08T17:49:18.936Z,24.90
2018-06-08T17:51:48.170Z,24.80
2018-06-08T17:54:17.354Z,24.80
2018-06-08T17:56:46.630Z,24.70
2018-06-08T17:59:15.762Z,24.70
2018-06-08T18:01:44.974Z,24.60
2018-06-08T18:04:14.261Z,24.70
2018-06-08T18:06:43.509Z,24.60
2018-06-08T18:09:13.243Z,24.60
2018-06-08T18:11:42.433Z,24.60
2018-06-08T18:14:11.596Z,24.50
2018-06-08T18:16:40.753Z,24.40
2018-06-08T18:19:09.946Z,24.40
2018-06-08T18:21:39.117Z,24.30
2018-06-08T18:24:08.345Z,24.10
2018-06-08T18:26:37.463Z,24.20
2018-06-08T18:29:06.638Z,24.10
2018-06-08T18:31:35.814Z,24.00
2018-06-08T18:34:05.017Z,23.90
2018-06-08T18:36:34.285Z,23.80
2018-06-08T18:39:06.377Z,23.90
2018-06-08T18:41:37.447Z,23.80
2018-06-08T18:44:08.445Z,23.80
2018-06-08T18:46:39.394Z,23.70
2018-06-08T18:49:10.418Z,23.60
2018-06-08T18:51:41.323Z,23.60
2018-06-08T18:54:10.594Z,23.60
2018-06-08T18:56:39.831Z,23.60
2018-06-08T18:59:08.942Z,23.40
2018-06-08T19:01:38.126Z,23.30
2018-06-08T19:04:07.354Z,23.20
2018-06-08T19:06:36.548Z,23.20
2018-06-08T19:09:08.503Z,23.10
2018-06-08T19:11:37.709Z,23.10
2018-06-08T19:14:06.905Z,23.00
2018-06-08T19:16:36.151Z,22.90
2018-06-08T19:19:05.299Z,22.90
2018-06-08T19:21:34.514Z,22.70
2018-06-08T19:24:03.698Z,22.60
2018-06-08T19:26:32.887Z,22.40
2018-06-08T19:29:02.046Z,22.40
2018-06-08T19:31:31.165Z,22.30
2018-06-08T19:34:00.530Z,22.10
2018-06-08T19:36:29.726Z,21.90
2018-06-08T19:38:58.901Z,22.00
2018-06-08T19:41:28.145Z,22.00
2018-06-08T19:46:26.090Z,21.90
2018-06-08T19:48:55.364Z,21.90
2018-06-08T19:51:24.512Z,22.00
2018-06-08T19:53:53.733Z,22.00
2018-06-08T19:56:22.934Z,22.10
2018-06-08T19:58:52.078Z,22.10
2018-06-08T20:01:21.357Z,22.00
2018-06-08T20:03:50.558Z,22.00
2018-06-08T20:06:19.808Z,21.90
2018-06-08T20:08:48.990Z,21.90
2018-06-08T20:11:18.130Z,21.90
2018-06-08T20:13:47.330Z,21.90
2018-06-08T20:16:16.594Z,21.80
2018-06-08T20:18:45.792Z,21.80
2018-06-08T20:21:14.950Z,21.70
2018-06-08T20:23:44.172Z,21.70
2018-06-08T20:26:13.383Z,21.80
2018-06-08T20:28:42.554Z,21.80
2018-06-08T20:31:11.737Z,22.00
2018-06-08T20:33:41.024Z,22.00
2018-06-08T20:36:10.205Z,21.90
2018-06-08T20:38:39.394Z,21.90
2018-06-08T20:41:08.754Z,21.90
2018-06-08T20:43:37.976Z,21.80
2018-06-08T20:48:35.884Z,21.70
2018-06-08T20:51:05.152Z,21.60
2018-06-08T20:53:34.337Z,21.60
2018-06-08T20:56:03.549Z,21.60
2018-06-08T20:58:32.776Z,21.60
2018-06-08T21:01:02.739Z,21.70
2018-06-08T21:03:31.903Z,21.60
2018-06-08T21:06:01.201Z,21.60
2018-06-08T21:08:30.664Z,21.50
2018-06-08T21:11:00.173Z,21.50
2018-06-08T21:13:29.961Z,21.40
2018-06-08T21:15:59.122Z,21.30
2018-06-08T21:18:28.354Z,21.30
2018-06-08T21:20:57.583Z,21.30
2018-06-08T21:23:26.796Z,21.30
2018-06-08T21:25:55.984Z,21.30
2018-06-08T21:28:25.199Z,21.40
2018-06-08T21:30:54.395Z,21.30
2018-06-08T21:35:52.828Z,21.10
2018-06-08T21:38:22.041Z,21.10
2018-06-08T21:40:51.285Z,21.20
2018-06-08T21:43:20.438Z,21.30
2018-06-08T21:45:49.672Z,21.30
2018-06-08T21:48:18.850Z,21.30
2018-06-08T21:50:48.049Z,21.30
2018-06-08T21:53:17.213Z,21.30
2018-06-08T21:55:46.476Z,21.40
2018-06-08T21:58:15.727Z,21.40
2018-06-08T22:00:44.870Z,21.30
2018-06-08T22:03:14.079Z,21.30
2018-06-08T22:05:43.268Z,21.30
2018-06-08T22:08:12.474Z,21.30
2018-06-08T22:10:41.680Z,21.20
2018-06-08T22:13:10.873Z,21.20
2018-06-08T22:15:40.471Z,21.20
2018-06-08T22:18:09.665Z,21.20
2018-06-08T22:20:38.909Z,21.10
2018-06-08T22:23:08.174Z,21.10
2018-06-08T22:25:37.348Z,21.00
2018-06-08T22:30:35.385Z,21.00
2018-06-08T22:33:04.671Z,21.00
2018-06-08T22:35:33.841Z,21.00
2018-06-08T22:38:03.081Z,21.00
2018-06-08T22:40:32.898Z,21.00
2018-06-08T22:43:02.215Z,21.00
2018-06-08T22:45:31.353Z,21.00
2018-06-08T22:50:29.337Z,21.00
2018-06-08T22:52:58.643Z,21.00
2018-06-08T22:55:27.855Z,21.10
2018-06-08T22:57:57.080Z,21.00
2018-06-08T23:00:26.310Z,21.00
2018-06-08T23:02:55.638Z,21.00
2018-06-08T23:05:24.837Z,21.00
2018-06-08T23:07:53.973Z,21.00
2018-06-08T23:10:23.145Z,21.00
2018-06-08T23:12:52.402Z,21.00
2018-06-08T23:15:21.657Z,21.00
2018-06-08T23:17:50.892Z,21.00
2018-06-08T23:20:20.226Z,21.00
2018-06-08T23:22:49.456Z,21.00
2018-06-08T23:25:19.106Z,21.00
2018-06-08T23:27:48.323Z,21.00
2018-06-08T23:30:17.464Z,20.90
2018-06-08T23:32:46.681Z,20.80
2018-06-08T23:35:15.853Z,20.80
2018-06-08T23:37:45.342Z,20.90
2018-06-08T23:40:14.456Z,20.90
2018-06-08T23:42:43.604Z,20.90
2018-06-08T23:45:13.081Z,20.90
2018-06-08T23:47:42.256Z,20.80
2018-06-08T23:50:11.497Z,20.80
2018-06-08T23:52:40.721Z,20.80
2018-06-08T23:55:09.874Z,20.80
2018-06-08T23:57:39.057Z,20.70
